sensor_id;sensor_type;location;lat;lon;timestamp;P1;durP1;ratioP1;P2;durP2;ratioP2
20699;SDS011;10511;51.232;9.420;2023-04-05T00:01:52;1.10;;;1.10;;
20699;SDS011;10511;51.232;9.420;2023-04-05T00:04:20;1.27;;;1.27;;
20699;SDS011;10511;51.232;9.420;2023-04-05T00:06:47;1.20;;;1.20;;
20699;SDS011;10511;51.232;9.420;2023-04-05T00:09:18;1.27;;;1.27;;
20699;SDS011;10511;51.232;9.420;2023-04-05T00:11:45;1.20;;;1.20;;
20699;SDS011;10511;51.232;9.420;2023-04-05T00:14:12;1.23;;;1.23;;
20699;SDS011;10511;51.232;9.420;2023-04-05T00:16:40;1.20;;;1.20;;
20699;SDS011;10511;51.232;9.420;2023-04-05T00:19:07;1.30;;;1.30;;
20699;SDS011;10511;51.232;9.420;2023-04-05T00:21:35;1.30;;;1.30;;
20699;SDS011;10511;51.232;9.420;2023-04-05T00:24:03;1.20;;;1.20;;
20699;SDS011;10511;51.232;9.420;2023-04-05T00:26:33;1.30;;;1.30;;
20699;SDS011;10511;51.232;9.420;2023-04-05T00:29:01;1.20;;;1.20;;
20699;SDS011;10511;51.232;9.420;2023-04-05T00:31:28;1.30;;;1.30;;
20699;SDS011;10511;51.232;9.420;2023-04-05T00:33:55;1.27;;;1.27;;
20699;SDS011;10511;51.232;9.420;2023-04-05T00:36:22;1.20;;;1.20;;
20699;SDS011;10511;51.232;9.420;2023-04-05T00:38:49;1.30;;;1.30;;
20699;SDS011;10511;51.232;9.420;2023-04-05T00:41:16;1.30;;;1.30;;
20699;SDS011;10511;51.232;9.420;2023-04-05T00:43:44;1.20;;;1.20;;
20699;SDS011;10511;51.232;9.420;2023-04-05T00:46:11;1.20;;;1.20;;
20699;SDS011;10511;51.232;9.420;2023-04-05T00:48:38;1.37;;;1.37;;
20699;SDS011;10511;51.232;9.420;2023-04-05T00:51:05;1.23;;;1.23;;
20699;SDS011;10511;51.232;9.420;2023-04-05T00:53:35;1.20;;;1.20;;
20699;SDS011;10511;51.232;9.420;2023-04-05T00:56:03;1.27;;;1.27;;
20699;SDS011;10511;51.232;9.420;2023-04-05T00:58:30;1.20;;;1.20;;
20699;SDS011;10511;51.232;9.420;2023-04-05T01:01:01;1.30;;;1.30;;
20699;SDS011;10511;51.232;9.420;2023-04-05T01:03:37;1.27;;;1.27;;
20699;SDS011;10511;51.232;9.420;2023-04-05T01:06:16;1.30;;;1.30;;
20699;SDS011;10511;51.232;9.420;2023-04-05T01:08:54;1.40;;;1.40;;
20699;SDS011;10511;51.232;9.420;2023-04-05T01:11:30;1.30;;;1.30;;
20699;SDS011;10511;51.232;9.420;2023-04-05T01:13:59;1.40;;;1.40;;
20699;SDS011;10511;51.232;9.420;2023-04-05T01:16:28;1.43;;;1.43;;
20699;SDS011;10511;51.232;9.420;2023-04-05T01:18:55;1.40;;;1.40;;
20699;SDS011;10511;51.232;9.420;2023-04-05T01:21:28;1.50;;;1.50;;
20699;SDS011;10511;51.232;9.420;2023-04-05T01:24:24;1.50;;;1.50;;
20699;SDS011;10511;51.232;9.420;2023-04-05T01:27:05;1.50;;;1.50;;
20699;SDS011;10511;51.232;9.420;2023-04-05T01:32:23;1.50;;;1.50;;
20699;SDS011;10511;51.232;9.420;2023-04-05T01:35:00;1.50;;;1.50;;
20699;SDS011;10511;51.232;9.420;2023-04-05T01:37:34;1.60;;;1.60;;
20699;SDS011;10511;51.232;9.420;2023-04-05T01:40:04;1.40;;;1.40;;
20699;SDS011;10511;51.232;9.420;2023-04-05T01:42:32;1.53;;;1.53;;
20699;SDS011;10511;51.232;9.420;2023-04-05T01:45:02;1.53;;;1.53;;
20699;SDS011;10511;51.232;9.420;2023-04-05T01:47:29;1.50;;;1.50;;
20699;SDS011;10511;51.232;9.420;2023-04-05T01:49:56;1.40;;;1.40;;
20699;SDS011;10511;51.232;9.420;2023-04-05T01:52:23;1.50;;;1.50;;
20699;SDS011;10511;51.232;9.420;2023-04-05T01:54:50;1.50;;;1.50;;
20699;SDS011;10511;51.232;9.420;2023-04-05T01:57:17;1.60;;;1.60;;
20699;SDS011;10511;51.232;9.420;2023-04-05T01:59:44;1.50;;;1.50;;
20699;SDS011;10511;51.232;9.420;2023-04-05T02:02:12;1.50;;;1.50;;
20699;SDS011;10511;51.232;9.420;2023-04-05T02:04:39;1.50;;;1.50;;
20699;SDS011;10511;51.232;9.420;2023-04-05T02:07:06;1.50;;;1.50;;
20699;SDS011;10511;51.232;9.420;2023-04-05T02:09:33;1.60;;;1.60;;
20699;SDS011;10511;51.232;9.420;2023-04-05T02:12:00;1.70;;;1.70;;
20699;SDS011;10511;51.232;9.420;2023-04-05T02:14:27;1.53;;;1.53;;
20699;SDS011;10511;51.232;9.420;2023-04-05T02:16:54;1.50;;;1.50;;
20699;SDS011;10511;51.232;9.420;2023-04-05T02:19:22;1.43;;;1.43;;
20699;SDS011;10511;51.232;9.420;2023-04-05T02:21:50;1.50;;;1.50;;
20699;SDS011;10511;51.232;9.420;2023-04-05T02:24:18;1.50;;;1.50;;
20699;SDS011;10511;51.232;9.420;2023-04-05T02:26:45;1.50;;;1.50;;
20699;SDS011;10511;51.232;9.420;2023-04-05T02:29:12;1.50;;;1.50;;
20699;SDS011;10511;51.232;9.420;2023-04-05T02:31:39;1.50;;;1.50;;
20699;SDS011;10511;51.232;9.420;2023-04-05T02:34:06;1.40;;;1.40;;
20699;SDS011;10511;51.232;9.420;2023-04-05T02:36:37;1.50;;;1.50;;
20699;SDS011;10511;51.232;9.420;2023-04-05T02:39:05;1.50;;;1.50;;
20699;SDS011;10511;51.232;9.420;2023-04-05T02:41:32;1.50;;;1.50;;
20699;SDS011;10511;51.232;9.420;2023-04-05T02:44:00;1.50;;;1.50;;
20699;SDS011;10511;51.232;9.420;2023-04-05T02:46:27;1.50;;;1.50;;
20699;SDS011;10511;51.232;9.420;2023-04-05T02:48:54;1.53;;;1.53;;
20699;SDS011;10511;51.232;9.420;2023-04-05T02:51:21;1.50;;;1.50;;
20699;SDS011;10511;51.232;9.420;2023-04-05T02:53:49;1.60;;;1.60;;
20699;SDS011;10511;51.232;9.420;2023-04-05T02:56:17;1.40;;;1.40;;
20699;SDS011;10511;51.232;9.420;2023-04-05T02:58:46;1.40;;;1.40;;
20699;SDS011;10511;51.232;9.420;2023-04-05T03:01:13;1.40;;;1.40;;
20699;SDS011;10511;51.232;9.420;2023-04-05T03:03:41;1.40;;;1.40;;
20699;SDS011;10511;51.232;9.420;2023-04-05T03:06:08;1.40;;;1.40;;
20699;SDS011;10511;51.232;9.420;2023-04-05T03:08:35;1.50;;;1.50;;
20699;SDS011;10511;51.232;9.420;2023-04-05T03:11:05;1.40;;;1.40;;
20699;SDS011;10511;51.232;9.420;2023-04-05T03:13:32;1.30;;;1.30;;
20699;SDS011;10511;51.232;9.420;2023-04-05T03:16:00;1.33;;;1.33;;
20699;SDS011;10511;51.232;9.420;2023-04-05T03:18:26;1.20;;;1.20;;
20699;SDS011;10511;51.232;9.420;2023-04-05T03:20:54;1.30;;;1.30;;
20699;SDS011;10511;51.232;9.420;2023-04-05T03:23:21;1.30;;;1.30;;
20699;SDS011;10511;51.232;9.420;2023-04-05T03:25:52;1.43;;;1.43;;
20699;SDS011;10511;51.232;9.420;2023-04-05T03:28:22;1.40;;;1.40;;
20699;SDS011;10511;51.232;9.420;2023-04-05T03:30:49;1.30;;;1.30;;
20699;SDS011;10511;51.232;9.420;2023-04-05T03:33:17;1.40;;;1.40;;
20699;SDS011;10511;51.232;9.420;2023-04-05T03:35:44;1.40;;;1.40;;
20699;SDS011;10511;51.232;9.420;2023-04-05T03:38:11;1.40;;;1.40;;
20699;SDS011;10511;51.232;9.420;2023-04-05T03:40:38;1.50;;;1.50;;
20699;SDS011;10511;51.232;9.420;2023-04-05T03:43:05;1.50;;;1.50;;
20699;SDS011;10511;51.232;9.420;2023-04-05T03:45:33;1.50;;;1.50;;
20699;SDS011;10511;51.232;9.420;2023-04-05T03:48:00;1.40;;;1.40;;
20699;SDS011;10511;51.232;9.420;2023-04-05T03:50:28;1.50;;;1.50;;
20699;SDS011;10511;51.232;9.420;2023-04-05T03:52:55;1.40;;;1.40;;
20699;SDS011;10511;51.232;9.420;2023-04-05T03:55:22;1.40;;;1.40;;
20699;SDS011;10511;51.232;9.420;2023-04-05T03:57:48;1.50;;;1.50;;
20699;SDS011;10511;51.232;9.420;2023-04-05T04:00:15;1.50;;;1.50;;
20699;SDS011;10511;51.232;9.420;2023-04-05T04:02:45;1.47;;;1.47;;
20699;SDS011;10511;51.232;9.420;2023-04-05T04:05:14;1.50;;;1.50;;
20699;SDS011;10511;51.232;9.420;2023-04-05T04:07:42;1.60;;;1.60;;
20699;SDS011;10511;51.232;9.420;2023-04-05T04:10:10;1.60;;;1.60;;
20699;SDS011;10511;51.232;9.420;2023-04-05T04:12:42;1.60;;;1.60;;
20699;SDS011;10511;51.232;9.420;2023-04-05T04:15:09;1.53;;;1.53;;
20699;SDS011;10511;51.232;9.420;2023-04-05T04:17:36;1.50;;;1.50;;
20699;SDS011;10511;51.232;9.420;2023-04-05T04:20:06;1.63;;;1.63;;
20699;SDS011;10511;51.232;9.420;2023-04-05T04:22:35;1.50;;;1.50;;
20699;SDS011;10511;51.232;9.420;2023-04-05T04:25:04;1.60;;;1.60;;
20699;SDS011;10511;51.232;9.420;2023-04-05T04:27:35;1.60;;;1.60;;
20699;SDS011;10511;51.232;9.420;2023-04-05T04:30:05;1.63;;;1.63;;
20699;SDS011;10511;51.232;9.420;2023-04-05T04:32:34;1.63;;;1.63;;
20699;SDS011;10511;51.232;9.420;2023-04-05T04:35:18;1.60;;;1.60;;
20699;SDS011;10511;51.232;9.420;2023-04-05T04:37:50;1.70;;;1.70;;
20699;SDS011;10511;51.232;9.420;2023-04-05T04:40:18;1.60;;;1.60;;
20699;SDS011;10511;51.232;9.420;2023-04-05T04:42:47;1.63;;;1.63;;
20699;SDS011;10511;51.232;9.420;2023-04-05T04:45:15;1.70;;;1.70;;
20699;SDS011;10511;51.232;9.420;2023-04-05T04:47:43;1.60;;;1.60;;
20699;SDS011;10511;51.232;9.420;2023-04-05T04:50:11;1.60;;;1.60;;
20699;SDS011;10511;51.232;9.420;2023-04-05T04:52:41;1.60;;;1.60;;
20699;SDS011;10511;51.232;9.420;2023-04-05T04:55:08;1.60;;;1.60;;
20699;SDS011;10511;51.232;9.420;2023-04-05T04:57:37;1.50;;;1.50;;
20699;SDS011;10511;51.232;9.420;2023-04-05T05:00:05;1.53;;;1.53;;
20699;SDS011;10511;51.232;9.420;2023-04-05T05:02:37;1.50;;;1.50;;
20699;SDS011;10511;51.232;9.420;2023-04-05T05:05:06;1.50;;;1.50;;
20699;SDS011;10511;51.232;9.420;2023-04-05T05:07:34;1.40;;;1.40;;
20699;SDS011;10511;51.232;9.420;2023-04-05T05:10:03;1.43;;;1.43;;
20699;SDS011;10511;51.232;9.420;2023-04-05T05:12:31;1.50;;;1.50;;
20699;SDS011;10511;51.232;9.420;2023-04-05T05:14:58;1.50;;;1.50;;
20699;SDS011;10511;51.232;9.420;2023-04-05T05:17:25;1.50;;;1.50;;
20699;SDS011;10511;51.232;9.420;2023-04-05T05:19:52;1.40;;;1.40;;
20699;SDS011;10511;51.232;9.420;2023-04-05T05:22:19;1.60;;;1.60;;
20699;SDS011;10511;51.232;9.420;2023-04-05T05:24:46;1.60;;;1.60;;
20699;SDS011;10511;51.232;9.420;2023-04-05T05:27:14;1.60;;;1.60;;
20699;SDS011;10511;51.232;9.420;2023-04-05T05:29:41;1.60;;;1.60;;
20699;SDS011;10511;51.232;9.420;2023-04-05T05:32:08;1.50;;;1.50;;
20699;SDS011;10511;51.232;9.420;2023-04-05T05:34:38;1.50;;;1.50;;
20699;SDS011;10511;51.232;9.420;2023-04-05T05:37:05;1.60;;;1.60;;
20699;SDS011;10511;51.232;9.420;2023-04-05T05:39:33;1.50;;;1.50;;
20699;SDS011;10511;51.232;9.420;2023-04-05T05:42:00;1.60;;;1.60;;
20699;SDS011;10511;51.232;9.420;2023-04-05T05:44:29;1.40;;;1.40;;
20699;SDS011;10511;51.232;9.420;2023-04-05T05:46:56;1.57;;;1.57;;
20699;SDS011;10511;51.232;9.420;2023-04-05T05:49:23;1.50;;;1.50;;
20699;SDS011;10511;51.232;9.420;2023-04-05T05:51:50;1.50;;;1.50;;
20699;SDS011;10511;51.232;9.420;2023-04-05T05:54:17;1.50;;;1.50;;
20699;SDS011;10511;51.232;9.420;2023-04-05T05:56:45;1.70;;;1.70;;
20699;SDS011;10511;51.232;9.420;2023-04-05T05:59:12;1.50;;;1.50;;
20699;SDS011;10511;51.232;9.420;2023-04-05T06:01:40;1.50;;;1.50;;
20699;SDS011;10511;51.232;9.420;2023-04-05T06:04:10;1.40;;;1.40;;
20699;SDS011;10511;51.232;9.420;2023-04-05T06:06:37;1.40;;;1.40;;
20699;SDS011;10511;51.232;9.420;2023-04-05T06:09:04;1.50;;;1.50;;
20699;SDS011;10511;51.232;9.420;2023-04-05T06:11:31;1.50;;;1.50;;
20699;SDS011;10511;51.232;9.420;2023-04-05T06:13:58;1.43;;;1.43;;
20699;SDS011;10511;51.232;9.420;2023-04-05T06:16:25;1.53;;;1.53;;
20699;SDS011;10511;51.232;9.420;2023-04-05T06:18:54;1.40;;;1.40;;
20699;SDS011;10511;51.232;9.420;2023-04-05T06:21:21;1.40;;;1.40;;
20699;SDS011;10511;51.232;9.420;2023-04-05T06:23:48;1.40;;;1.40;;
20699;SDS011;10511;51.232;9.420;2023-04-05T06:26:15;1.40;;;1.40;;
20699;SDS011;10511;51.232;9.420;2023-04-05T06:28:44;1.40;;;1.40;;
20699;SDS011;10511;51.232;9.420;2023-04-05T06:31:13;1.50;;;1.50;;
20699;SDS011;10511;51.232;9.420;2023-04-05T06:33:41;1.40;;;1.40;;
20699;SDS011;10511;51.232;9.420;2023-04-05T06:36:09;1.40;;;1.40;;
20699;SDS011;10511;51.232;9.420;2023-04-05T06:38:36;1.50;;;1.50;;
20699;SDS011;10511;51.232;9.420;2023-04-05T06:41:03;1.47;;;1.47;;
20699;SDS011;10511;51.232;9.420;2023-04-05T06:43:30;1.50;;;1.50;;
20699;SDS011;10511;51.232;9.420;2023-04-05T06:45:57;1.50;;;1.50;;
20699;SDS011;10511;51.232;9.420;2023-04-05T06:48:24;1.40;;;1.40;;
20699;SDS011;10511;51.232;9.420;2023-04-05T06:50:55;1.50;;;1.50;;
20699;SDS011;10511;51.232;9.420;2023-04-05T06:53:24;1.50;;;1.50;;
20699;SDS011;10511;51.232;9.420;2023-04-05T06:55:52;1.50;;;1.50;;
20699;SDS011;10511;51.232;9.420;2023-04-05T06:58:18;1.40;;;1.40;;
20699;SDS011;10511;51.232;9.420;2023-04-05T07:00:45;1.40;;;1.40;;
20699;SDS011;10511;51.232;9.420;2023-04-05T07:03:12;1.40;;;1.40;;
20699;SDS011;10511;51.232;9.420;2023-04-05T07:05:39;1.40;;;1.40;;
20699;SDS011;10511;51.232;9.420;2023-04-05T07:08:06;1.30;;;1.30;;
20699;SDS011;10511;51.232;9.420;2023-04-05T07:10:38;1.30;;;1.30;;
20699;SDS011;10511;51.232;9.420;2023-04-05T07:13:05;1.30;;;1.30;;
20699;SDS011;10511;51.232;9.420;2023-04-05T07:15:32;1.30;;;1.30;;
20699;SDS011;10511;51.232;9.420;2023-04-05T07:17:59;1.37;;;1.37;;
20699;SDS011;10511;51.232;9.420;2023-04-05T07:20:26;1.30;;;1.30;;
20699;SDS011;10511;51.232;9.420;2023-04-05T07:22:53;1.30;;;1.30;;
20699;SDS011;10511;51.232;9.420;2023-04-05T07:25:20;1.40;;;1.40;;
20699;SDS011;10511;51.232;9.420;2023-04-05T07:27:48;1.30;;;1.30;;
20699;SDS011;10511;51.232;9.420;2023-04-05T07:30:16;1.40;;;1.40;;
20699;SDS011;10511;51.232;9.420;2023-04-05T07:32:43;1.30;;;1.30;;
20699;SDS011;10511;51.232;9.420;2023-04-05T07:35:10;1.40;;;1.40;;
20699;SDS011;10511;51.232;9.420;2023-04-05T07:37:37;1.30;;;1.30;;
20699;SDS011;10511;51.232;9.420;2023-04-05T07:40:05;1.30;;;1.30;;
20699;SDS011;10511;51.232;9.420;2023-04-05T07:42:34;1.40;;;1.40;;
20699;SDS011;10511;51.232;9.420;2023-04-05T07:45:03;1.37;;;1.37;;
20699;SDS011;10511;51.232;9.420;2023-04-05T07:47:31;1.33;;;1.33;;
20699;SDS011;10511;51.232;9.420;2023-04-05T07:49:59;1.20;;;1.20;;
20699;SDS011;10511;51.232;9.420;2023-04-05T07:52:26;1.20;;;1.20;;
20699;SDS011;10511;51.232;9.420;2023-04-05T07:54:53;1.20;;;1.20;;
20699;SDS011;10511;51.232;9.420;2023-04-05T07:57:21;1.20;;;1.20;;
20699;SDS011;10511;51.232;9.420;2023-04-05T07:59:48;1.20;;;1.20;;
20699;SDS011;10511;51.232;9.420;2023-04-05T08:02:18;1.20;;;1.20;;
20699;SDS011;10511;51.232;9.420;2023-04-05T08:04:44;1.20;;;1.20;;
20699;SDS011;10511;51.232;9.420;2023-04-05T08:07:11;1.20;;;1.20;;
20699;SDS011;10511;51.232;9.420;2023-04-05T08:09:38;1.20;;;1.20;;
20699;SDS011;10511;51.232;9.420;2023-04-05T08:12:05;1.20;;;1.20;;
20699;SDS011;10511;51.232;9.420;2023-04-05T08:14:32;1.10;;;1.10;;
20699;SDS011;10511;51.232;9.420;2023-04-05T08:16:59;1.10;;;1.10;;
20699;SDS011;10511;51.232;9.420;2023-04-05T08:19:28;1.20;;;1.20;;
20699;SDS011;10511;51.232;9.420;2023-04-05T08:21:55;1.23;;;1.23;;
20699;SDS011;10511;51.232;9.420;2023-04-05T08:24:21;1.20;;;1.20;;
20699;SDS011;10511;51.232;9.420;2023-04-05T08:26:48;1.10;;;1.10;;
20699;SDS011;10511;51.232;9.420;2023-04-05T08:29:15;1.10;;;1.10;;
20699;SDS011;10511;51.232;9.420;2023-04-05T08:31:42;1.20;;;1.20;;
20699;SDS011;10511;51.232;9.420;2023-04-05T08:34:09;1.20;;;1.20;;
20699;SDS011;10511;51.232;9.420;2023-04-05T08:36:37;1.10;;;1.10;;
20699;SDS011;10511;51.232;9.420;2023-04-05T08:39:04;1.30;;;1.30;;
20699;SDS011;10511;51.232;9.420;2023-04-05T08:41:32;1.20;;;1.20;;
20699;SDS011;10511;51.232;9.420;2023-04-05T08:44:01;1.10;;;1.10;;
20699;SDS011;10511;51.232;9.420;2023-04-05T08:46:30;1.20;;;1.20;;
20699;SDS011;10511;51.232;9.420;2023-04-05T08:48:58;1.30;;;1.30;;
20699;SDS011;10511;51.232;9.420;2023-04-05T08:51:26;1.13;;;1.13;;
20699;SDS011;10511;51.232;9.420;2023-04-05T08:53:54;1.10;;;1.10;;
20699;SDS011;10511;51.232;9.420;2023-04-05T08:56:24;1.10;;;1.10;;
20699;SDS011;10511;51.232;9.420;2023-04-05T08:58:56;1.10;;;1.10;;
20699;SDS011;10511;51.232;9.420;2023-04-05T09:01:27;1.10;;;1.10;;
20699;SDS011;10511;51.232;9.420;2023-04-05T09:03:55;1.13;;;1.13;;
20699;SDS011;10511;51.232;9.420;2023-04-05T09:06:25;1.10;;;1.10;;
20699;SDS011;10511;51.232;9.420;2023-04-05T09:08:52;1.10;;;1.10;;
20699;SDS011;10511;51.232;9.420;2023-04-05T09:11:23;1.03;;;1.03;;
20699;SDS011;10511;51.232;9.420;2023-04-05T09:13:50;1.20;;;1.20;;
20699;SDS011;10511;51.232;9.420;2023-04-05T09:16:17;1.20;;;1.20;;
20699;SDS011;10511;51.232;9.420;2023-04-05T09:18:45;1.10;;;1.10;;
20699;SDS011;10511;51.232;9.420;2023-04-05T09:21:13;1.10;;;1.10;;
20699;SDS011;10511;51.232;9.420;2023-04-05T09:23:49;1.00;;;1.00;;
20699;SDS011;10511;51.232;9.420;2023-04-05T09:26:19;1.10;;;1.10;;
20699;SDS011;10511;51.232;9.420;2023-04-05T09:28:48;1.10;;;1.10;;
20699;SDS011;10511;51.232;9.420;2023-04-05T09:31:31;1.10;;;1.10;;
20699;SDS011;10511;51.232;9.420;2023-04-05T09:34:00;1.10;;;1.10;;
20699;SDS011;10511;51.232;9.420;2023-04-05T09:36:28;1.20;;;1.20;;
20699;SDS011;10511;51.232;9.420;2023-04-05T09:39:03;1.10;;;1.10;;
20699;SDS011;10511;51.232;9.420;2023-04-05T09:41:33;1.20;;;1.20;;
20699;SDS011;10511;51.232;9.420;2023-04-05T09:44:01;1.00;;;1.00;;
20699;SDS011;10511;51.232;9.420;2023-04-05T09:46:29;1.10;;;1.10;;
20699;SDS011;10511;51.232;9.420;2023-04-05T09:48:58;1.10;;;1.10;;
20699;SDS011;10511;51.232;9.420;2023-04-05T09:51:31;1.00;;;1.00;;
20699;SDS011;10511;51.232;9.420;2023-04-05T09:53:59;1.00;;;1.00;;
20699;SDS011;10511;51.232;9.420;2023-04-05T09:56:28;1.00;;;1.00;;
20699;SDS011;10511;51.232;9.420;2023-04-05T09:59:00;1.00;;;1.00;;
20699;SDS011;10511;51.232;9.420;2023-04-05T10:01:31;1.07;;;1.07;;
20699;SDS011;10511;51.232;9.420;2023-04-05T10:03:58;1.10;;;1.10;;
20699;SDS011;10511;51.232;9.420;2023-04-05T10:06:35;1.20;;;1.20;;
20699;SDS011;10511;51.232;9.420;2023-04-05T10:09:03;1.10;;;1.10;;
20699;SDS011;10511;51.232;9.420;2023-04-05T10:11:31;1.00;;;1.00;;
20699;SDS011;10511;51.232;9.420;2023-04-05T10:14:01;1.10;;;1.10;;
20699;SDS011;10511;51.232;9.420;2023-04-05T10:16:29;1.07;;;1.07;;
20699;SDS011;10511;51.232;9.420;2023-04-05T10:18:59;1.10;;;1.10;;
20699;SDS011;10511;51.232;9.420;2023-04-05T10:21:27;1.10;;;1.10;;
20699;SDS011;10511;51.232;9.420;2023-04-05T10:23:58;1.00;;;1.00;;
20699;SDS011;10511;51.232;9.420;2023-04-05T10:26:33;1.10;;;1.10;;
20699;SDS011;10511;51.232;9.420;2023-04-05T10:29:11;1.00;;;1.00;;
20699;SDS011;10511;51.232;9.420;2023-04-05T10:31:49;1.10;;;1.10;;
20699;SDS011;10511;51.232;9.420;2023-04-05T10:34:23;1.00;;;1.00;;
20699;SDS011;10511;51.232;9.420;2023-04-05T10:36:57;1.10;;;1.10;;
20699;SDS011;10511;51.232;9.420;2023-04-05T10:39:27;1.10;;;1.10;;
20699;SDS011;10511;51.232;9.420;2023-04-05T10:41:58;1.00;;;1.00;;
20699;SDS011;10511;51.232;9.420;2023-04-05T10:44:28;1.00;;;1.00;;
20699;SDS011;10511;51.232;9.420;2023-04-05T10:46:57;1.07;;;1.07;;
20699;SDS011;10511;51.232;9.420;2023-04-05T10:49:28;1.00;;;1.00;;
20699;SDS011;10511;51.232;9.420;2023-04-05T10:51:59;1.10;;;1.10;;
20699;SDS011;10511;51.232;9.420;2023-04-05T10:54:27;1.10;;;1.10;;
20699;SDS011;10511;51.232;9.420;2023-04-05T10:56:58;1.10;;;1.10;;
20699;SDS011;10511;51.232;9.420;2023-04-05T10:59:27;1.00;;;1.00;;
20699;SDS011;10511;51.232;9.420;2023-04-05T11:01:55;1.00;;;1.00;;
20699;SDS011;10511;51.232;9.420;2023-04-05T11:04:23;1.10;;;1.10;;
20699;SDS011;10511;51.232;9.420;2023-04-05T11:09:39;1.00;;;1.00;;
20699;SDS011;10511;51.232;9.420;2023-04-05T11:15:31;1.10;;;1.10;;
20699;SDS011;10511;51.232;9.420;2023-04-05T11:18:02;1.10;;;1.10;;
20699;SDS011;10511;51.232;9.420;2023-04-05T11:20:41;1.00;;;1.00;;
20699;SDS011;10511;51.232;9.420;2023-04-05T11:23:10;1.10;;;1.10;;
20699;SDS011;10511;51.232;9.420;2023-04-05T11:25:39;0.90;;;0.90;;
20699;SDS011;10511;51.232;9.420;2023-04-05T11:28:16;1.03;;;1.03;;
20699;SDS011;10511;51.232;9.420;2023-04-05T11:30:52;1.00;;;1.00;;
20699;SDS011;10511;51.232;9.420;2023-04-05T11:33:35;0.90;;;0.90;;
20699;SDS011;10511;51.232;9.420;2023-04-05T11:36:27;0.90;;;0.90;;
20699;SDS011;10511;51.232;9.420;2023-04-05T11:41:52;1.10;;;1.10;;
20699;SDS011;10511;51.232;9.420;2023-04-05T11:44:20;1.20;;;1.20;;
20699;SDS011;10511;51.232;9.420;2023-04-05T11:46:49;0.90;;;0.90;;
20699;SDS011;10511;51.232;9.420;2023-04-05T11:49:16;0.90;;;0.90;;
20699;SDS011;10511;51.232;9.420;2023-04-05T11:51:43;1.00;;;1.00;;
20699;SDS011;10511;51.232;9.420;2023-04-05T11:54:12;1.00;;;1.00;;
20699;SDS011;10511;51.232;9.420;2023-04-05T11:56:40;1.00;;;1.00;;
20699;SDS011;10511;51.232;9.420;2023-04-05T11:59:12;0.90;;;0.90;;
20699;SDS011;10511;51.232;9.420;2023-04-05T12:01:43;1.00;;;1.00;;
20699;SDS011;10511;51.232;9.420;2023-04-05T12:04:12;0.90;;;0.90;;
20699;SDS011;10511;51.232;9.420;2023-04-05T12:06:39;1.00;;;1.00;;
20699;SDS011;10511;51.232;9.420;2023-04-05T12:09:06;1.00;;;1.00;;
20699;SDS011;10511;51.232;9.420;2023-04-05T12:11:33;0.90;;;0.90;;
20699;SDS011;10511;51.232;9.420;2023-04-05T12:14:01;0.90;;;0.90;;
20699;SDS011;10511;51.232;9.420;2023-04-05T12:16:28;1.00;;;1.00;;
20699;SDS011;10511;51.232;9.420;2023-04-05T12:18:55;0.90;;;0.90;;
20699;SDS011;10511;51.232;9.420;2023-04-05T12:21:24;0.90;;;0.90;;
20699;SDS011;10511;51.232;9.420;2023-04-05T12:23:52;1.00;;;1.00;;
20699;SDS011;10511;51.232;9.420;2023-04-05T12:26:19;0.90;;;0.90;;
20699;SDS011;10511;51.232;9.420;2023-04-05T12:28:49;0.90;;;0.90;;
20699;SDS011;10511;51.232;9.420;2023-04-05T12:31:33;0.90;;;0.90;;
20699;SDS011;10511;51.232;9.420;2023-04-05T12:34:00;0.90;;;0.90;;
20699;SDS011;10511;51.232;9.420;2023-04-05T12:36:29;1.00;;;1.00;;
20699;SDS011;10511;51.232;9.420;2023-04-05T12:38:56;0.90;;;0.90;;
20699;SDS011;10511;51.232;9.420;2023-04-05T12:41:25;0.90;;;0.90;;
20699;SDS011;10511;51.232;9.420;2023-04-05T12:43:53;0.90;;;0.90;;
20699;SDS011;10511;51.232;9.420;2023-04-05T12:46:36;0.80;;;0.80;;
20699;SDS011;10511;51.232;9.420;2023-04-05T12:49:04;0.80;;;0.80;;
20699;SDS011;10511;51.232;9.420;2023-04-05T12:51:33;0.83;;;0.83;;
20699;SDS011;10511;51.232;9.420;2023-04-05T12:54:00;0.90;;;0.90;;
20699;SDS011;10511;51.232;9.420;2023-04-05T12:56:28;0.80;;;0.80;;
20699;SDS011;10511;51.232;9.420;2023-04-05T12:58:55;0.90;;;0.90;;
20699;SDS011;10511;51.232;9.420;2023-04-05T13:01:22;0.80;;;0.80;;
20699;SDS011;10511;51.232;9.420;2023-04-05T13:03:49;0.90;;;0.90;;
20699;SDS011;10511;51.232;9.420;2023-04-05T13:06:17;0.80;;;0.80;;
20699;SDS011;10511;51.232;9.420;2023-04-05T13:08:45;0.80;;;0.80;;
20699;SDS011;10511;51.232;9.420;2023-04-05T13:11:12;0.80;;;0.80;;
20699;SDS011;10511;51.232;9.420;2023-04-05T13:13:38;1.00;;;1.00;;
20699;SDS011;10511;51.232;9.420;2023-04-05T13:16:06;0.90;;;0.90;;
20699;SDS011;10511;51.232;9.420;2023-04-05T13:18:33;0.87;;;0.87;;
20699;SDS011;10511;51.232;9.420;2023-04-05T13:21:00;0.90;;;0.90;;
20699;SDS011;10511;51.232;9.420;2023-04-05T13:23:31;0.80;;;0.80;;
20699;SDS011;10511;51.232;9.420;2023-04-05T13:25:59;0.80;;;0.80;;
20699;SDS011;10511;51.232;9.420;2023-04-05T13:28:26;0.80;;;0.80;;
20699;SDS011;10511;51.232;9.420;2023-04-05T13:30:54;0.80;;;0.80;;
20699;SDS011;10511;51.232;9.420;2023-04-05T13:33:20;0.80;;;0.80;;
20699;SDS011;10511;51.232;9.420;2023-04-05T13:35:47;0.87;;;0.87;;
20699;SDS011;10511;51.232;9.420;2023-04-05T13:38:14;0.83;;;0.83;;
20699;SDS011;10511;51.232;9.420;2023-04-05T13:40:41;0.80;;;0.80;;
20699;SDS011;10511;51.232;9.420;2023-04-05T13:43:09;0.80;;;0.80;;
20699;SDS011;10511;51.232;9.420;2023-04-05T13:45:36;0.80;;;0.80;;
20699;SDS011;10511;51.232;9.420;2023-04-05T13:48:03;0.90;;;0.90;;
20699;SDS011;10511;51.232;9.420;2023-04-05T13:50:30;0.90;;;0.90;;
20699;SDS011;10511;51.232;9.420;2023-04-05T13:52:57;0.83;;;0.83;;
20699;SDS011;10511;51.232;9.420;2023-04-05T13:55:24;0.80;;;0.80;;
20699;SDS011;10511;51.232;9.420;2023-04-05T13:57:51;0.80;;;0.80;;
20699;SDS011;10511;51.232;9.420;2023-04-05T14:00:19;0.90;;;0.90;;
20699;SDS011;10511;51.232;9.420;2023-04-05T14:02:46;0.90;;;0.90;;
20699;SDS011;10511;51.232;9.420;2023-04-05T14:05:13;0.83;;;0.83;;
20699;SDS011;10511;51.232;9.420;2023-04-05T14:07:41;0.90;;;0.90;;
20699;SDS011;10511;51.232;9.420;2023-04-05T14:10:08;0.90;;;0.90;;
20699;SDS011;10511;51.232;9.420;2023-04-05T14:12:36;0.87;;;0.87;;
20699;SDS011;10511;51.232;9.420;2023-04-05T14:15:03;0.90;;;0.90;;
20699;SDS011;10511;51.232;9.420;2023-04-05T14:17:32;0.90;;;0.90;;
20699;SDS011;10511;51.232;9.420;2023-04-05T14:19:59;0.90;;;0.90;;
20699;SDS011;10511;51.232;9.420;2023-04-05T14:22:28;0.90;;;0.90;;
20699;SDS011;10511;51.232;9.420;2023-04-05T14:24:55;0.93;;;0.93;;
20699;SDS011;10511;51.232;9.420;2023-04-05T14:27:22;0.90;;;0.90;;
20699;SDS011;10511;51.232;9.420;2023-04-05T14:29:51;0.90;;;0.90;;
20699;SDS011;10511;51.232;9.420;2023-04-05T14:32:20;0.90;;;0.90;;
20699;SDS011;10511;51.232;9.420;2023-04-05T14:34:49;0.90;;;0.90;;
20699;SDS011;10511;51.232;9.420;2023-04-05T14:37:16;0.80;;;0.80;;
20699;SDS011;10511;51.232;9.420;2023-04-05T14:39:43;0.90;;;0.90;;
20699;SDS011;10511;51.232;9.420;2023-04-05T14:42:11;1.00;;;1.00;;
20699;SDS011;10511;51.232;9.420;2023-04-05T14:44:37;0.90;;;0.90;;
20699;SDS011;10511;51.232;9.420;2023-04-05T14:47:04;1.00;;;1.00;;
20699;SDS011;10511;51.232;9.420;2023-04-05T14:49:31;0.90;;;0.90;;
20699;SDS011;10511;51.232;9.420;2023-04-05T14:51:59;0.93;;;0.93;;
20699;SDS011;10511;51.232;9.420;2023-04-05T14:54:26;0.90;;;0.90;;
20699;SDS011;10511;51.232;9.420;2023-04-05T14:56:53;0.90;;;0.90;;
20699;SDS011;10511;51.232;9.420;2023-04-05T14:59:20;1.00;;;1.00;;
20699;SDS011;10511;51.232;9.420;2023-04-05T15:01:47;0.90;;;0.90;;
20699;SDS011;10511;51.232;9.420;2023-04-05T15:04:14;0.90;;;0.90;;
20699;SDS011;10511;51.232;9.420;2023-04-05T15:06:41;0.90;;;0.90;;
20699;SDS011;10511;51.232;9.420;2023-04-05T15:09:09;0.90;;;0.90;;